Time;durP1;ratioP1;P1;durP2;ratioP2;P2;SDS_P1;SDS_P2;PMS_P1;PMS_P2;Temp;Humidity;BMP_temperature;BMP_pressure;BME280_temperature;BME280_humidity;BME280_pressure;Samples;Min_cycle;Max_cycle;Signal;HPM_P1;HPM_P2
2023/09/10 00:00:45;;;;;;;169.73;162.30;;;;;;;29.55;45.20;101601.63;5049423;28;20033;-73
2023/09/10 00:03:10;;;;;;;168.95;161.38;;;;;;;29.52;45.15;101596.75;5037079;28;20075;-73
2023/09/10 00:05:36;;;;;;;172.48;164.35;;;;;;;29.51;45.22;101595.97;5052014;28;20084;-73
2023/09/10 00:08:02;;;;;;;164.25;156.82;;;;;;;29.49;45.23;101603.03;5040152;28;20397;-73
2023/09/10 00:10:27;;;;;;;165.20;157.48;;;;;;;29.47;45.08;101594.22;5050847;28;20052;-73
2023/09/10 00:12:53;;;;;;;161.18;153.68;;;;;;;29.45;45.34;101597.34;5043252;28;20041;-72
2023/09/10 00:15:18;;;;;;;164.02;156.52;;;;;;;29.42;45.04;101589.69;5050735;28;20036;-73
2023/09/10 00:17:43;;;;;;;159.95;152.45;;;;;;;29.39;45.33;101586.81;5043908;28;20491;-73
2023/09/10 00:20:10;;;;;;;162.27;154.85;;;;;;;29.38;45.23;101585.19;5041296;28;20037;-73
2023/09/10 00:22:36;;;;;;;163.25;156.05;;;;;;;29.36;45.20;101590.28;5043009;28;20037;-73
2023/09/10 00:25:02;;;;;;;160.93;153.57;;;;;;;29.32;45.00;101582.63;5051607;28;20500;-73
2023/09/10 00:27:27;;;;;;;163.00;155.50;;;;;;;29.31;45.07;101581.03;5045247;28;20040;-73
2023/09/10 00:29:53;;;;;;;163.55;155.65;;;;;;;29.29;45.10;101588.91;5049839;28;20033;-73
2023/09/10 00:32:18;;;;;;;167.20;159.70;;;;;;;29.27;45.21;101582.88;5044929;28;20439;-73
2023/09/10 00:34:44;;;;;;;169.13;161.60;;;;;;;29.26;45.11;101580.47;5036626;28;20049;-73
2023/09/10 00:37:09;;;;;;;158.32;151.10;;;;;;;29.23;45.14;101572.81;5047367;28;20443;-73
2023/09/10 00:39:34;;;;;;;160.73;153.25;;;;;;;29.21;45.14;101573.16;5047270;28;20120;-73
2023/09/10 00:42:00;;;;;;;159.88;152.38;;;;;;;29.18;45.22;101571.09;5051215;28;20033;-73
2023/09/10 00:44:25;;;;;;;159.52;152.20;;;;;;;29.17;44.96;101571.44;5048876;28;20212;-73
2023/09/10 00:46:52;;;;;;;166.32;158.40;;;;;;;29.15;45.34;101577.34;5034149;28;20358;-73
2023/09/10 00:49:19;;;;;;;167.43;159.95;;;;;;;29.15;45.29;101579.31;5040494;28;20116;-73
2023/09/10 00:51:46;;;;;;;160.68;153.15;;;;;;;29.12;45.48;101580.81;5028638;28;20049;-73
2023/09/10 00:54:11;;;;;;;164.15;156.55;;;;;;;29.09;45.27;101571.19;5043934;28;20029;-73
2023/09/10 00:56:37;;;;;;;162.10;154.57;;;;;;;29.08;45.22;101572.38;5049697;28;20033;-73
2023/09/10 00:59:03;;;;;;;160.60;153.23;;;;;;;29.05;45.17;101575.81;5044841;28;20046;-73
2023/09/10 01:01:29;;;;;;;158.73;151.43;;;;;;;29.04;45.32;101576.16;5051150;28;20029;-73
2023/09/10 01:03:55;;;;;;;156.02;148.90;;;;;;;29.02;45.25;101567.34;5036032;28;20033;-73
2023/09/10 01:06:21;;;;;;;165.63;157.75;;;;;;;28.99;45.39;101568.06;5040668;28;20067;-73
2023/09/10 01:08:47;;;;;;;153.00;145.93;;;;;;;28.98;45.25;101571.97;5043070;28;20103;-73
2023/09/10 01:11:55;;;;;;;154.65;147.60;;;;;;;28.92;45.20;101575.00;5036491;28;20059;-73
2023/09/10 01:14:42;;;;;;;153.82;146.55;;;;;;;28.90;45.52;101579.28;5051145;28;20036;-73
2023/09/10 01:17:37;;;;;;;159.32;152.20;;;;;;;28.84;45.33;101583.47;5047296;28;20033;-73
2023/09/10 01:20:23;;;;;;;154.10;146.98;;;;;;;28.83;45.19;101576.28;5047610;28;20115;-73
2023/09/10 01:23:01;;;;;;;156.10;148.95;;;;;;;28.82;45.44;101578.25;5038119;28;20076;-73
2023/09/10 01:25:27;;;;;;;160.70;153.20;;;;;;;28.79;45.42;101573.38;5040537;28;20041;-73
2023/09/10 01:27:52;;;;;;;152.77;145.65;;;;;;;28.78;45.21;101582.06;5074841;28;20037;-74
2023/09/10 01:30:17;;;;;;;158.77;151.60;;;;;;;28.76;45.47;101574.06;5036915;28;20045;-73
2023/09/10 01:32:48;;;;;;;150.23;143.15;;;;;;;28.74;45.25;101576.38;5049241;28;20043;-73
2023/09/10 01:35:20;;;;;;;151.25;144.00;;;;;;;28.74;45.31;101573.59;5053226;28;20052;-73
2023/09/10 01:37:52;;;;;;;151.02;143.93;;;;;;;28.71;45.29;101576.28;5044166;28;20037;-73
2023/09/10 01:40:21;;;;;;;158.30;150.98;;;;;;;28.69;45.27;101576.63;5053764;28;20029;-73
2023/09/10 01:42:49;;;;;;;154.35;146.93;;;;;;;28.67;45.41;101576.94;5029475;28;20600;-72
2023/09/10 01:45:14;;;;;;;160.23;152.68;;;;;;;28.65;45.11;101584.00;5050622;28;20127;-73
2023/09/10 01:47:40;;;;;;;152.93;145.75;;;;;;;28.64;45.11;101587.97;5036236;28;20108;-73
2023/09/10 01:50:06;;;;;;;151.02;143.63;;;;;;;28.62;45.20;101588.28;5047624;28;20029;-73
2023/09/10 01:52:32;;;;;;;156.93;149.20;;;;;;;28.61;45.27;101583.91;5040058;28;20057;-73
2023/09/10 01:54:57;;;;;;;156.00;148.50;;;;;;;28.60;45.28;101589.81;5041527;28;20088;-73
2023/09/10 01:57:23;;;;;;;156.23;148.93;;;;;;;28.57;45.32;101584.94;5035225;28;20033;-73
2023/09/10 01:59:48;;;;;;;158.23;150.80;;;;;;;28.55;45.01;101585.31;5047336;28;20461;-73
2023/09/10 02:02:13;;;;;;;159.32;152.02;;;;;;;28.54;45.07;101588.41;5049245;28;20500;-73
2023/09/10 02:04:39;;;;;;;151.70;144.60;;;;;;;28.51;45.24;101587.13;5053748;28;20051;-73
2023/09/10 02:07:04;;;;;;;156.95;149.45;;;;;;;28.51;45.31;101583.56;5049913;28;20191;-73
2023/09/10 02:09:30;;;;;;;152.38;145.15;;;;;;;28.48;45.25;101580.28;5043524;28;20060;-73
2023/09/10 02:11:55;;;;;;;159.68;152.40;;;;;;;28.47;45.26;101584.22;5050321;28;20384;-73
2023/09/10 02:14:20;;;;;;;150.95;143.75;;;;;;;28.45;45.23;101581.00;5044516;28;20033;-73
2023/09/10 02:16:46;;;;;;;155.07;147.68;;;;;;;28.44;45.20;101587.69;5053104;28;20033;-73
2023/09/10 02:19:11;;;;;;;148.80;141.80;;;;;;;28.42;45.01;101589.97;5049453;28;20481;-73
2023/09/10 02:21:37;;;;;;;150.43;143.43;;;;;;;28.40;45.30;101592.31;5034900;28;20437;-73
2023/09/10 02:24:02;;;;;;;158.52;151.10;;;;;;;28.38;45.47;101586.28;5053797;28;20115;-73
2023/09/10 02:26:28;;;;;;;152.27;145.10;;;;;;;28.36;45.25;101582.22;5052733;28;20133;-73
2023/09/10 02:28:53;;;;;;;150.27;143.27;;;;;;;28.35;45.08;101586.13;5038011;28;20123;-73
2023/09/10 02:31:20;;;;;;;151.05;143.80;;;;;;;28.33;45.15;101580.94;5052883;28;20484;-73
2023/09/10 02:33:46;;;;;;;148.13;140.77;;;;;;;28.31;45.27;101585.22;5042841;28;20190;-73
2023/09/10 02:36:11;;;;;;;148.60;141.30;;;;;;;28.30;45.13;101586.34;5049913;28;20513;-73
2023/09/10 02:38:37;;;;;;;149.65;141.98;;;;;;;28.28;45.34;101589.47;5045217;28;20039;-73
2023/09/10 02:41:02;;;;;;;150.00;142.80;;;;;;;28.26;45.38;101584.25;5053079;28;20039;-73
2023/09/10 02:43:28;;;;;;;147.55;140.25;;;;;;;28.24;44.97;101572.69;5053578;28;20170;-73
2023/09/10 02:45:53;;;;;;;147.95;141.02;;;;;;;28.24;45.49;101588.53;5050525;28;20029;-73
2023/09/10 02:48:19;;;;;;;155.65;148.23;;;;;;;28.22;45.45;101586.13;5033917;28;20056;-73
2023/09/10 02:50:44;;;;;;;151.48;144.18;;;;;;;28.20;45.05;101579.28;5045606;28;20025;-73
2023/09/10 02:53:09;;;;;;;155.02;147.57;;;;;;;28.20;45.25;101585.66;5049039;28;20116;-73
2023/09/10 02:55:35;;;;;;;145.43;138.15;;;;;;;28.18;45.04;101592.69;5053613;28;20033;-74
2023/09/10 02:58:00;;;;;;;144.55;137.73;;;;;;;28.17;45.18;101591.88;5048531;28;20457;-73
2023/09/10 03:00:25;;;;;;;144.95;137.95;;;;;;;28.15;45.41;101596.13;5053196;28;20025;-73
2023/09/10 03:02:54;;;;;;;148.20;141.18;;;;;;;28.13;45.25;101588.16;5041483;28;20045;-73
2023/09/10 03:05:20;;;;;;;146.60;139.40;;;;;;;28.11;45.24;101590.47;5046856;28;20072;-73
2023/09/10 03:07:46;;;;;;;148.15;141.07;;;;;;;28.11;45.16;101592.44;5041629;28;20402;-73
2023/09/10 03:10:11;;;;;;;145.40;138.43;;;;;;;28.08;45.28;101587.56;5049556;28;20129;-73
2023/09/10 03:12:37;;;;;;;143.13;136.18;;;;;;;28.07;45.34;101592.28;5044049;28;20075;-73
2023/09/10 03:15:02;;;;;;;145.10;138.00;;;;;;;28.05;45.30;101591.84;5049329;28;20056;-73
2023/09/10 03:17:28;;;;;;;142.35;135.35;;;;;;;28.02;45.35;101593.34;5045462;28;20521;-73
2023/09/10 03:19:53;;;;;;;147.05;140.10;;;;;;;28.02;45.21;101592.50;5040166;28;20030;-73
2023/09/10 03:22:19;;;;;;;143.98;137.05;;;;;;;28.00;45.28;101592.06;5035609;28;20117;-73
2023/09/10 03:24:44;;;;;;;144.48;137.60;;;;;;;27.99;45.10;101582.09;5035675;28;20120;-73
2023/09/10 03:27:09;;;;;;;146.02;138.52;;;;;;;27.97;45.20;101584.38;5052647;28;20032;-73
2023/09/10 03:29:36;;;;;;;143.23;136.32;;;;;;;27.95;45.33;101584.75;5048669;28;20805;-73
2023/09/10 03:32:03;;;;;;;144.43;137.23;;;;;;;27.94;45.27;101583.09;5025254;28;20057;-73
2023/09/10 03:34:30;;;;;;;138.63;132.02;;;;;;;27.93;45.10;101578.72;5042015;28;20120;-73
2023/09/10 03:36:56;;;;;;;140.85;133.85;;;;;;;27.91;45.42;101581.00;5049630;28;20396;-73
2023/09/10 03:39:22;;;;;;;148.05;140.65;;;;;;;27.90;45.30;101576.63;5033559;28;20068;-73
2023/09/10 03:41:47;;;;;;;144.75;137.75;;;;;;;27.88;45.28;101580.91;5041374;28;20389;-74
2023/09/10 03:44:12;;;;;;;142.80;136.10;;;;;;;27.88;45.26;101581.69;5040767;28;20038;-73
2023/09/10 03:46:38;;;;;;;142.90;135.90;;;;;;;27.86;45.39;101583.19;5052416;28;20112;-73
2023/09/10 03:49:03;;;;;;;147.30;140.00;;;;;;;27.85;45.15;101570.47;5040922;28;20477;-73
2023/09/10 03:51:29;;;;;;;141.82;134.95;;;;;;;27.83;45.23;101568.84;5035152;28;20045;-73
2023/09/10 03:53:54;;;;;;;141.95;135.23;;;;;;;27.81;45.23;101565.56;5052171;28;20032;-73
2023/09/10 03:56:22;;;;;;;142.80;135.80;;;;;;;27.79;45.36;101567.84;5039695;28;20476;-73
2023/09/10 03:58:47;;;;;;;141.47;134.57;;;;;;;27.78;45.27;101571.78;5052403;28;20060;-73
2023/09/10 04:01:12;;;;;;;144.50;137.43;;;;;;;27.76;45.33;101570.50;5051094;28;20377;-73
2023/09/10 04:03:38;;;;;;;145.13;138.23;;;;;;;27.75;45.22;101566.13;5042868;28;20044;-73
2023/09/10 04:06:03;;;;;;;140.80;134.15;;;;;;;27.73;45.21;101569.22;5050722;28;20143;-73
2023/09/10 04:08:28;;;;;;;146.25;138.95;;;;;;;27.71;45.46;101560.41;5037731;28;20217;-73
2023/09/10 04:10:54;;;;;;;146.07;138.82;;;;;;;27.70;45.22;101558.00;5043680;28;20489;-73
2023/09/10 04:13:19;;;;;;;149.23;141.63;;;;;;;27.68;45.22;101565.84;5052066;28;20061;-73
2023/09/10 04:15:45;;;;;;;141.82;134.93;;;;;;;27.66;45.20;101562.59;5052256;28;20029;-73
2023/09/10 04:18:10;;;;;;;140.18;133.60;;;;;;;27.64;45.46;101562.91;5044286;28;20040;-73
2023/09/10 04:20:35;;;;;;;141.93;134.93;;;;;;;27.63;45.45;101558.53;5045471;28;20037;-73
2023/09/10 04:23:01;;;;;;;138.63;131.98;;;;;;;27.61;45.40;101560.81;5049178;28;20123;-73
2023/09/10 04:25:27;;;;;;;149.45;142.25;;;;;;;27.60;45.65;101562.00;5051792;28;20371;-73
2023/09/10 04:27:52;;;;;;;142.68;135.68;;;;;;;27.58;45.45;101555.97;5039006;28;20044;-73
2023/09/10 04:30:17;;;;;;;143.20;136.18;;;;;;;27.56;45.36;101563.81;5050654;28;20029;-74
2023/09/10 04:32:43;;;;;;;140.52;133.75;;;;;;;27.53;45.54;101559.75;5032892;28;20083;-73
2023/09/10 04:35:09;;;;;;;139.15;132.35;;;;;;;27.51;45.79;101569.56;5037676;28;20127;-73
2023/09/10 04:37:34;;;;;;;143.88;136.68;;;;;;;27.50;45.52;101567.94;5044517;28;20120;-73
2023/09/10 04:40:07;;;;;;;137.05;130.32;;;;;;;27.48;45.47;101561.91;5033874;28;20091;-73
2023/09/10 04:42:33;;;;;;;139.70;133.00;;;;;;;27.46;45.63;101565.03;5041774;28;20532;-73
2023/09/10 04:44:59;;;;;;;139.13;132.35;;;;;;;27.44;45.38;101563.72;5029432;28;20073;-73
2023/09/10 04:47:24;;;;;;;143.15;136.13;;;;;;;27.41;45.60;101560.47;5043357;28;20072;-73
2023/09/10 04:49:49;;;;;;;141.43;134.50;;;;;;;27.39;45.66;101562.81;5045050;28;20120;-73
2023/09/10 04:52:18;;;;;;;137.95;131.13;;;;;;;27.37;45.68;101555.97;5046712;28;20485;-73
2023/09/10 04:54:43;;;;;;;143.32;136.55;;;;;;;27.36;45.51;101566.22;5051153;28;20082;-73
2023/09/10 04:57:11;;;;;;;138.65;131.88;;;;;;;27.35;45.60;101567.38;5046799;28;20060;-73
2023/09/10 04:59:37;;;;;;;138.63;132.00;;;;;;;27.31;45.53;101568.41;5031762;28;20060;-74
2023/09/10 05:02:04;;;;;;;142.00;134.88;;;;;;;27.31;45.73;101573.94;5042195;28;20161;-73
2023/09/10 05:04:30;;;;;;;138.73;132.00;;;;;;;27.29;45.72;101585.41;5050645;28;20504;-73
2023/09/10 05:06:55;;;;;;;139.55;132.82;;;;;;;27.28;45.57;101572.66;5048645;28;20041;-74
2023/09/10 05:09:20;;;;;;;141.70;134.60;;;;;;;27.26;45.28;101574.94;5046751;28;20033;-73
2023/09/10 05:11:46;;;;;;;139.52;132.30;;;;;;;27.25;45.56;101578.88;5031599;28;20440;-73
2023/09/10 05:14:11;;;;;;;137.88;131.10;;;;;;;27.24;45.68;101582.81;5029395;28;20136;-73
2023/09/10 05:16:36;;;;;;;139.88;132.98;;;;;;;27.23;45.63;101580.38;5040499;28;20136;-73
2023/09/10 05:19:02;;;;;;;142.20;135.50;;;;;;;27.21;45.62;101577.91;5050154;28;20076;-73
2023/09/10 05:21:27;;;;;;;137.77;130.75;;;;;;;27.18;45.63;101587.72;5031590;28;20474;-73
2023/09/10 05:23:53;;;;;;;136.77;130.00;;;;;;;27.17;45.67;101579.72;5033676;28;20371;-73
2023/09/10 05:26:18;;;;;;;143.50;136.60;;;;;;;27.15;45.57;101577.28;5040857;28;20032;-73
2023/09/10 05:28:43;;;;;;;138.65;131.93;;;;;;;27.14;45.73;101575.66;5044275;28;20037;-73
2023/09/10 05:31:09;;;;;;;137.70;130.80;;;;;;;27.13;45.74;101581.53;5050241;28;20029;-73
2023/09/10 05:33:34;;;;;;;137.85;130.85;;;;;;;27.12;45.70;101582.69;5038522;28;20532;-73
2023/09/10 05:36:00;;;;;;;141.35;134.45;;;;;;;27.09;45.62;101586.94;5050404;28;20048;-73
2023/09/10 05:38:25;;;;;;;137.95;131.15;;;;;;;27.08;45.62;101585.31;5033749;28;20114;-73
2023/09/10 05:40:51;;;;;;;137.52;130.73;;;;;;;27.06;45.75;101584.81;5045848;28;20048;-73
2023/09/10 05:43:17;;;;;;;136.73;130.02;;;;;;;27.04;45.67;101589.06;5039917;28;20501;-73
2023/09/10 05:45:45;;;;;;;136.85;130.32;;;;;;;27.04;45.89;101594.63;5037490;28;20465;-73
2023/09/10 05:48:10;;;;;;;134.48;128.07;;;;;;;27.02;45.38;101596.94;5035260;28;20511;-73
2023/09/10 05:50:39;;;;;;;137.38;130.63;;;;;;;27.01;45.72;101604.41;5036186;28;20069;-73
2023/09/10 05:53:04;;;;;;;134.48;127.90;;;;;;;27.00;45.74;101596.47;5043912;28;20036;-73
2023/09/10 05:55:29;;;;;;;139.25;132.35;;;;;;;26.97;45.64;101597.94;5049560;28;20033;-73
2023/09/10 05:57:55;;;;;;;137.77;130.40;;;;;;;26.96;45.56;101602.66;5044035;28;20477;-73
2023/09/10 06:00:21;;;;;;;135.65;128.77;;;;;;;26.95;45.63;101605.78;5045700;28;20102;-73
2023/09/10 06:02:48;;;;;;;134.55;127.57;;;;;;;26.93;45.62;101597.78;5050741;28;20259;-73
2023/09/10 06:05:14;;;;;;;133.73;127.30;;;;;;;26.93;45.48;101605.28;5049393;28;20107;-73
2023/09/10 06:07:40;;;;;;;134.10;127.50;;;;;;;26.91;45.79;101602.88;5033187;28;20052;-73
2023/09/10 06:10:08;;;;;;;135.95;129.18;;;;;;;26.90;46.01;101604.00;5049422;28;20076;-73
2023/09/10 06:12:38;;;;;;;135.50;129.02;;;;;;;26.88;45.92;101606.28;5046296;28;20094;-73
2023/09/10 06:15:05;;;;;;;134.15;127.25;;;;;;;26.87;45.96;101612.16;5049946;28;20029;-73
2023/09/10 06:17:32;;;;;;;134.18;127.53;;;;;;;26.86;45.90;101607.75;5041478;28;20132;-73
2023/09/10 06:19:57;;;;;;;138.23;131.65;;;;;;;26.84;46.02;101607.28;5042723;28;20095;-73
2023/09/10 06:22:23;;;;;;;134.30;127.60;;;;;;;26.82;45.98;101615.94;5050951;28;20036;-73
2023/09/10 06:24:48;;;;;;;135.10;128.75;;;;;;;26.82;45.78;101618.72;5052217;28;20040;-73
2023/09/10 06:27:13;;;;;;;134.05;126.88;;;;;;;26.80;45.81;101607.13;5040396;28;20037;-73
2023/09/10 06:29:39;;;;;;;134.38;127.82;;;;;;;26.79;46.05;101615.75;5047932;28;20029;-73
2023/09/10 06:32:05;;;;;;;134.38;127.72;;;;;;;26.78;45.73;101614.97;5050908;28;20129;-73
2023/09/10 06:34:30;;;;;;;132.73;126.35;;;;;;;26.76;46.08;101620.84;5050954;28;20482;-73
2023/09/10 06:36:56;;;;;;;137.65;130.90;;;;;;;26.74;45.70;101614.81;5044695;28;20026;-73
2023/09/10 06:39:21;;;;;;;139.65;133.00;;;;;;;26.75;45.70;101624.75;5047118;28;20033;-75
2023/09/10 06:41:47;;;;;;;132.98;126.35;;;;;;;26.74;45.91;101625.09;5053379;28;20036;-75
2023/09/10 06:44:12;;;;;;;134.45;128.13;;;;;;;26.72;45.91;101619.88;5052711;28;20029;-75
2023/09/10 06:46:38;;;;;;;135.55;128.50;;;;;;;26.73;45.74;101631.78;5037245;28;20493;-74
2023/09/10 06:49:03;;;;;;;127.65;121.45;;;;;;;26.71;45.72;101628.50;5033123;28;20117;-76
2023/09/10 06:51:29;;;;;;;138.98;132.30;;;;;;;26.70;45.79;101624.94;5044848;28;20041;-75
2023/09/10 06:53:54;;;;;;;133.18;126.78;;;;;;;26.70;45.61;101626.91;5053706;28;20045;-75
2023/09/10 06:56:20;;;;;;;131.48;124.90;;;;;;;26.69;45.75;101626.09;5053508;28;20044;-74
2023/09/10 06:58:45;;;;;;;132.00;125.78;;;;;;;26.68;46.04;101629.97;5043558;28;20045;-75
2023/09/10 07:01:12;;;;;;;128.30;122.00;;;;;;;26.68;45.88;101634.72;5042340;28;20415;-75
2023/09/10 07:03:38;;;;;;;133.60;126.90;;;;;;;26.67;45.63;101633.91;5047200;28;20072;-74
2023/09/10 07:06:06;;;;;;;131.20;124.72;;;;;;;26.67;45.99;101636.69;5051948;28;20084;-74
2023/09/10 07:08:32;;;;;;;;;;;;;;;26.62;45.72;101633.28;5049003;28;20508;-74
2023/09/10 07:10:57;;;;;;;126.47;120.03;;;;;;;26.66;46.01;101631.47;5052094;28;19921;-74
2023/09/10 07:13:23;;;;;;;131.38;125.25;;;;;;;26.63;46.04;101630.16;5042527;28;20045;-74
2023/09/10 07:15:48;;;;;;;134.00;127.80;;;;;;;26.65;45.90;101640.94;5052859;28;20048;-74
2023/09/10 07:18:13;;;;;;;134.88;127.40;;;;;;;26.65;45.97;101635.38;5037246;28;20073;-74
2023/09/10 07:20:39;;;;;;;132.55;125.85;;;;;;;26.65;45.77;101632.63;5029783;28;20029;-74
2023/09/10 07:23:04;;;;;;;124.47;118.38;;;;;;;26.66;45.75;101634.22;5033693;28;20047;-74
2023/09/10 07:25:30;;;;;;;128.02;121.85;;;;;;;26.66;45.98;101631.47;5049413;28;20045;-74
2023/09/10 07:27:55;;;;;;;131.85;125.45;;;;;;;26.67;46.05;101635.88;5046105;28;20051;-73
2023/09/10 07:30:20;;;;;;;129.27;122.88;;;;;;;26.68;45.89;101645.81;5040250;28;20039;-73
2023/09/10 07:32:46;;;;;;;127.65;121.47;;;;;;;26.67;45.75;101633.91;5042506;28;20397;-73
2023/09/10 07:35:12;;;;;;;131.18;124.65;;;;;;;26.69;46.09;101639.13;5051365;28;20456;-73
2023/09/10 07:37:38;;;;;;;129.98;123.47;;;;;;;26.69;45.87;101639.13;5048396;28;20055;-73
2023/09/10 07:40:04;;;;;;;131.70;124.70;;;;;;;26.69;45.86;101639.94;5051779;28;20074;-73
2023/09/10 07:42:29;;;;;;;132.52;125.93;;;;;;;26.71;45.98;101637.66;5044678;28;20492;-73
2023/09/10 07:44:54;;;;;;;133.70;127.43;;;;;;;26.71;45.89;101634.88;5042141;28;20393;-74
2023/09/10 07:47:20;;;;;;;130.80;124.53;;;;;;;26.72;46.19;101636.50;5047383;28;20120;-73
2023/09/10 07:49:45;;;;;;;129.52;123.15;;;;;;;26.73;45.94;101642.84;5043588;28;20029;-73
2023/09/10 07:52:11;;;;;;;138.80;130.93;;;;;;;26.73;45.84;101637.31;5052673;28;20033;-74
2023/09/10 07:54:36;;;;;;;128.70;122.28;;;;;;;26.75;46.19;101644.16;5049576;28;20068;-74
2023/09/10 07:57:03;;;;;;;132.07;125.47;;;;;;;26.75;46.27;101652.47;5036021;28;20493;-74
2023/09/10 07:59:29;;;;;;;132.20;125.72;;;;;;;26.76;46.29;101645.78;5041745;28;20476;-74
2023/09/10 08:01:54;;;;;;;135.65;128.20;;;;;;;26.79;46.44;101657.34;5039212;28;20029;-74
2023/09/10 08:04:20;;;;;;;137.25;130.65;;;;;;;26.78;46.46;101648.22;5041987;28;20029;-74
2023/09/10 08:06:46;;;;;;;139.38;131.73;;;;;;;26.81;46.65;101657.84;5047994;28;20085;-72
2023/09/10 08:09:11;;;;;;;138.88;131.75;;;;;;;26.84;46.95;101659.94;5047195;28;20048;-74
2023/09/10 08:11:37;;;;;;;136.07;128.65;;;;;;;26.85;46.88;101658.81;5051574;28;20037;-74
2023/09/10 08:14:02;;;;;;;132.88;126.13;;;;;;;26.89;47.00;101662.56;5033973;28;20040;-74
2023/09/10 08:16:28;;;;;;;133.88;127.28;;;;;;;26.91;47.04;101657.47;5038309;28;20043;-74
2023/09/10 08:18:53;;;;;;;133.48;126.72;;;;;;;26.91;46.93;101660.25;5043608;28;20371;-72
2023/09/10 08:21:20;;;;;;;129.02;122.93;;;;;;;26.94;47.09;101654.88;5049612;28;20507;-72
2023/09/10 08:23:47;;;;;;;134.93;128.07;;;;;;;26.96;47.31;101652.56;5016309;28;20037;-74
2023/09/10 08:26:13;;;;;;;131.38;124.88;;;;;;;26.98;47.15;101641.94;5029598;28;20103;-72
2023/09/10 08:28:38;;;;;;;138.50;130.48;;;;;;;27.03;47.19;101642.91;5047134;28;20029;-75
2023/09/10 08:31:04;;;;;;;135.00;128.13;;;;;;;27.05;47.50;101649.75;5051081;28;20067;-74
2023/09/10 08:33:29;;;;;;;139.35;132.05;;;;;;;27.09;47.60;101642.41;5036462;28;20037;-74
2023/09/10 08:35:55;;;;;;;140.70;132.68;;;;;;;27.13;47.84;101640.56;5049881;28;20048;-74
2023/09/10 08:38:21;;;;;;;142.27;134.85;;;;;;;27.17;47.88;101643.50;5035091;28;20065;-74
2023/09/10 08:40:59;;;;;;;144.15;136.02;;;;;;;27.23;48.28;101652.47;5040745;28;20473;-74
2023/09/10 08:43:48;;;;;;;132.90;126.17;;;;;;;27.24;48.31;101648.53;5036480;28;20490;-74
2023/09/10 08:46:14;;;;;;;132.98;126.38;;;;;;;27.29;48.36;101645.59;5051725;28;20029;-74
2023/09/10 08:48:41;;;;;;;142.48;135.30;;;;;;;27.31;48.45;101646.06;5034049;28;20033;-74
2023/09/10 08:51:11;;;;;;;138.93;131.73;;;;;;;27.35;48.73;101649.81;5043257;28;20033;-75
2023/09/10 08:53:38;;;;;;;138.57;131.82;;;;;;;27.39;48.71;101651.59;5042693;28;20033;-74
2023/09/10 08:56:04;;;;;;;137.32;129.73;;;;;;;27.45;48.94;101645.84;5051663;28;20059;-73
2023/09/10 08:58:32;;;;;;;138.52;131.50;;;;;;;27.50;49.00;101642.88;5043572;28;20116;-74
2023/09/10 09:00:59;;;;;;;145.43;137.68;;;;;;;27.54;48.82;101644.63;5050720;28;20040;-74
2023/09/10 09:03:28;;;;;;;138.50;131.30;;;;;;;27.57;48.90;101638.41;5044312;28;20041;-76
2023/09/10 09:05:57;;;;;;;144.18;137.55;;;;;;;27.63;49.00;101650.94;5039757;28;20079;-75
2023/09/10 09:08:28;;;;;;;;;;;;;;;27.62;49.02;101651.28;5046966;28;20056;-74
2023/09/10 09:10:54;;;;;;;139.60;132.43;;;;;;;27.68;48.80;101638.81;5044075;28;20360;-73
2023/09/10 09:13:20;;;;;;;141.07;133.50;;;;;;;27.72;48.85;101637.00;5050307;28;20037;-73
2023/09/10 09:15:47;;;;;;;138.68;131.52;;;;;;;27.76;48.92;101643.50;5050768;28;20078;-74
2023/09/10 09:18:17;;;;;;;143.75;135.93;;;;;;;27.81;49.28;101639.69;5039410;28;20112;-74
2023/09/10 09:20:45;;;;;;;135.50;129.00;;;;;;;27.86;49.29;101641.50;5030444;28;20029;-74
2023/09/10 09:23:51;;;;;;;137.85;131.45;;;;;;;27.87;49.35;101638.41;5051267;28;20029;-75
2023/09/10 09:26:16;;;;;;;139.25;131.95;;;;;;;27.93;49.21;101630.66;5047856;28;20523;-75
2023/09/10 09:28:42;;;;;;;146.98;139.77;;;;;;;27.97;49.35;101631.59;5045550;28;20037;-74
2023/09/10 09:31:09;;;;;;;138.40;131.60;;;;;;;28.00;49.48;101631.75;5049121;28;20121;-73
2023/09/10 09:33:38;;;;;;;139.13;132.18;;;;;;;28.07;49.42;101635.91;5035286;28;20040;-73
2023/09/10 09:36:09;;;;;;;145.98;138.18;;;;;;;28.10;49.29;101636.06;5016378;28;20644;-73
2023/09/10 09:38:40;;;;;;;145.52;138.02;;;;;;;28.14;49.34;101627.84;5034070;28;20420;-73
2023/09/10 09:41:05;;;;;;;139.27;132.77;;;;;;;28.18;49.33;101628.81;5044182;28;20049;-73
2023/09/10 09:43:34;;;;;;;140.20;133.18;;;;;;;28.24;49.34;101627.44;5047681;28;20174;-74
2023/09/10 09:46:00;;;;;;;142.00;135.10;;;;;;;28.27;49.32;101623.97;5045014;28;20384;-74
2023/09/10 09:48:26;;;;;;;145.95;138.77;;;;;;;28.30;49.42;101623.31;5034455;28;20141;-74
2023/09/10 09:50:51;;;;;;;148.63;141.55;;;;;;;28.34;49.59;101623.41;5031891;28;20052;-73
2023/09/10 09:53:17;;;;;;;141.70;134.80;;;;;;;28.39;49.51;101617.63;5049719;28;20041;-73
2023/09/10 09:55:44;;;;;;;145.73;138.95;;;;;;;28.42;49.55;101617.75;5052830;28;20029;-74
2023/09/10 09:58:11;;;;;;;145.13;138.00;;;;;;;28.46;49.41;101615.16;5050245;28;20029;-73
2023/09/10 10:00:37;;;;;;;144.93;137.88;;;;;;;28.51;49.63;101608.56;5053515;28;20066;-74
2023/09/10 10:03:04;;;;;;;143.93;136.63;;;;;;;28.55;49.59;101606.69;5040886;28;20138;-72
2023/09/10 10:05:31;;;;;;;149.10;141.57;;;;;;;28.59;49.57;101608.44;5043711;28;20386;-72
2023/09/10 10:07:56;;;;;;;146.25;139.50;;;;;;;28.64;49.60;101612.97;5044442;28;20488;-72
2023/09/10 10:10:22;;;;;;;151.70;144.05;;;;;;;28.68;49.58;101613.94;5053762;28;20033;-72
2023/09/10 10:12:50;;;;;;;149.63;142.52;;;;;;;28.73;49.21;101615.66;5048860;28;20048;-74
2023/09/10 10:15:16;;;;;;;145.38;137.60;;;;;;;28.77;49.36;101611.84;5047140;28;20081;-73
2023/09/10 10:17:42;;;;;;;148.10;141.10;;;;;;;28.80;49.49;101602.78;5046093;28;20072;-72
2023/09/10 10:20:08;;;;;;;144.13;137.55;;;;;;;28.85;49.43;101610.94;5037265;28;20552;-73
2023/09/10 10:22:35;;;;;;;155.73;148.65;;;;;;;28.88;49.09;101601.09;5044090;28;20469;-73
2023/09/10 10:25:02;;;;;;;149.95;142.82;;;;;;;28.92;49.66;101600.03;5053861;28;20029;-72
2023/09/10 10:27:29;;;;;;;152.25;145.05;;;;;;;28.96;49.20;101608.50;5046254;28;20423;-74
2023/09/10 10:29:55;;;;;;;148.60;141.80;;;;;;;29.01;49.23;101593.56;5043616;28;20024;-74
2023/09/10 10:32:37;;;;;;;149.52;142.57;;;;;;;29.05;49.09;101602.81;5047369;28;20095;-75
2023/09/10 10:35:05;;;;;;;146.23;139.10;;;;;;;29.09;49.11;101598.22;5048281;28;20381;-74
2023/09/10 10:37:45;;;;;;;147.75;141.00;;;;;;;29.14;48.93;101599.94;5041326;28;20068;-75
2023/09/10 10:40:13;;;;;;;148.95;141.68;;;;;;;29.17;48.80;101602.84;5045927;28;20033;-75
2023/09/10 10:43:12;;;;;;;151.30;144.50;;;;;;;29.19;48.72;101603.31;5054019;28;20037;-77
2023/09/10 10:45:38;;;;;;;152.27;145.20;;;;;;;29.24;48.80;101605.03;5051715;28;20041;-75
2023/09/10 10:48:07;;;;;;;151.52;144.05;;;;;;;29.27;48.65;101594.00;5053519;28;20036;-76
2023/09/10 10:50:35;;;;;;;152.20;144.80;;;;;;;29.33;48.58;101594.56;5038440;28;20037;-73
2023/09/10 10:53:04;;;;;;;;;;;;;;;29.30;48.78;101596.09;5039699;28;20037;-75